THY9FQ LTFM-LTBJ
Flight info
| Callsign | THY9FQ |
|---|---|
| Flight time | 0h 41m |
| Altitude | 27000 |
| Route | IVGUS M19 OVZOK |
| Aircraft | A320/M-SDE3FGHIRWY/LB1 |
Departure
| Time | 2026-02-18 05:12 |
|---|---|
| Airport | İstanbul Airport (LTFM) |
Arrival
| Time | 2026-02-18 05:54 |
|---|---|
| Airport | Adnan Menderes International Airport (LTBJ) |
| Time | Latitude | Longitude | Altitude | Speed | Heading |
|---|---|---|---|---|---|
| 2026-02-18 04:56 | 41.26491 | 28.73769 | 334 ft | 0 kts | 257° |
| 2026-02-18 04:56 | 41.26492 | 28.73769 | 334 ft | 0 kts | 257° |
| 2026-02-18 05:00 | 41.26492 | 28.73770 | 334 ft | 0 kts | 257° |
| 2026-02-18 05:03 | 41.26494 | 28.73785 | 334 ft | 3 kts | 253° |
| 2026-02-18 05:03 | 41.26501 | 28.73810 | 339 ft | 3 kts | 248° |
| 2026-02-18 05:04 | 41.26508 | 28.73835 | 330 ft | 3 kts | 250° |
| 2026-02-18 05:04 | 41.26516 | 28.73858 | 331 ft | 3 kts | 230° |
| 2026-02-18 05:04 | 41.26530 | 28.73875 | 330 ft | 3 kts | 201° |
| 2026-02-18 05:04 | 41.26547 | 28.73880 | 333 ft | 2 kts | 179° |
| 2026-02-18 05:05 | 41.26557 | 28.73880 | 332 ft | 3 kts | 179° |
| 2026-02-18 05:05 | 41.26565 | 28.73880 | 331 ft | 3 kts | 179° |
| 2026-02-18 05:05 | 41.26574 | 28.73879 | 332 ft | 2 kts | 179° |
| 2026-02-18 05:06 | 41.26567 | 28.73880 | 331 ft | 2 kts | 177° |
| 2026-02-18 05:06 | 41.26562 | 28.73904 | 332 ft | 7 kts | 80° |
| 2026-02-18 05:06 | 41.26623 | 28.73953 | 332 ft | 17 kts | 356° |
| 2026-02-18 05:07 | 41.26933 | 28.73875 | 334 ft | 22 kts | 339° |
| 2026-02-18 05:07 | 41.27098 | 28.73867 | 332 ft | 24 kts | 349° |
| 2026-02-18 05:07 | 41.27138 | 28.73734 | 334 ft | 16 kts | 264° |
| 2026-02-18 05:07 | 41.27135 | 28.73546 | 333 ft | 24 kts | 269° |
| 2026-02-18 05:08 | 41.27132 | 28.73298 | 332 ft | 29 kts | 269° |
| 2026-02-18 05:08 | 41.27166 | 28.73101 | 333 ft | 18 kts | 341° |
| 2026-02-18 05:08 | 41.27298 | 28.73096 | 333 ft | 20 kts | 0° |
| 2026-02-18 05:08 | 41.27398 | 28.73009 | 332 ft | 18 kts | 304° |
| 2026-02-18 05:09 | 41.27506 | 28.72974 | 334 ft | 17 kts | 358° |
| 2026-02-18 05:09 | 41.27633 | 28.72972 | 332 ft | 20 kts | 359° |
| 2026-02-18 05:09 | 41.27790 | 28.72967 | 333 ft | 26 kts | 359° |
| 2026-02-18 05:09 | 41.27986 | 28.72962 | 331 ft | 30 kts | 359° |
| 2026-02-18 05:10 | 41.28202 | 28.72957 | 332 ft | 31 kts | 359° |
| 2026-02-18 05:10 | 41.28421 | 28.72950 | 330 ft | 32 kts | 358° |
| 2026-02-18 05:10 | 41.28645 | 28.72945 | 333 ft | 33 kts | 359° |
| 2026-02-18 05:11 | 41.29107 | 28.72937 | 333 ft | 34 kts | 358° |
| 2026-02-18 05:11 | 41.29341 | 28.72933 | 333 ft | 34 kts | 359° |
| 2026-02-18 05:11 | 41.29500 | 28.72872 | 334 ft | 20 kts | 289° |
| 2026-02-18 05:11 | 41.29465 | 28.72721 | 331 ft | 17 kts | 225° |
| 2026-02-18 05:12 | 41.29334 | 28.72705 | 330 ft | 33 kts | 178° |
| 2026-02-18 05:12 | 41.28765 | 28.72709 | 332 ft | 127 kts | 179° |
| 2026-02-18 05:12 | 41.27695 | 28.72716 | 811 ft | 158 kts | 187° |
| 2026-02-18 05:12 | 41.26582 | 28.72770 | 1756 ft | 163 kts | 181° |
| 2026-02-18 05:13 | 41.25353 | 28.72820 | 2050 ft | 189 kts | 183° |
| 2026-02-18 05:13 | 41.23979 | 28.72834 | 2482 ft | 206 kts | 185° |
| 2026-02-18 05:13 | 41.22462 | 28.72825 | 2773 ft | 232 kts | 184° |
| 2026-02-18 05:13 | 41.20784 | 28.72814 | 3391 ft | 246 kts | 183° |
| 2026-02-18 05:14 | 41.19071 | 28.72806 | 4350 ft | 245 kts | 187° |
| 2026-02-18 05:14 | 41.17484 | 28.72134 | 5301 ft | 243 kts | 210° |
| 2026-02-18 05:14 | 41.16094 | 28.70783 | 6057 ft | 250 kts | 221° |
| 2026-02-18 05:15 | 41.13513 | 28.67603 | 7803 ft | 257 kts | 219° |
| 2026-02-18 05:15 | 41.11968 | 28.66392 | 8661 ft | 262 kts | 202° |
| 2026-02-18 05:15 | 41.10156 | 28.65952 | 9571 ft | 269 kts | 182° |
| 2026-02-18 05:15 | 41.08270 | 28.66215 | 10373 ft | 277 kts | 175° |
| 2026-02-18 05:16 | 41.06304 | 28.66565 | 10658 ft | 300 kts | 176° |
| 2026-02-18 05:16 | 41.04166 | 28.66537 | 10958 ft | 314 kts | 195° |
| 2026-02-18 05:16 | 41.02159 | 28.65388 | 11590 ft | 319 kts | 214° |
| 2026-02-18 05:16 | 41.00305 | 28.63734 | 12314 ft | 323 kts | 215° |
| 2026-02-18 05:17 | 40.98442 | 28.62035 | 13066 ft | 327 kts | 216° |
| 2026-02-18 05:17 | 40.96555 | 28.60303 | 13755 ft | 332 kts | 216° |
| 2026-02-18 05:17 | 40.94648 | 28.58552 | 14441 ft | 336 kts | 215° |
| 2026-02-18 05:17 | 40.92718 | 28.56784 | 15138 ft | 339 kts | 215° |
| 2026-02-18 05:18 | 40.90763 | 28.55000 | 15850 ft | 343 kts | 216° |
| 2026-02-18 05:18 | 40.88797 | 28.53210 | 16624 ft | 344 kts | 216° |
| 2026-02-18 05:18 | 40.86811 | 28.51407 | 17332 ft | 348 kts | 216° |
| 2026-02-18 05:19 | 40.82774 | 28.47733 | 18569 ft | 356 kts | 215° |
| 2026-02-18 05:19 | 40.80725 | 28.45872 | 19203 ft | 359 kts | 215° |
| 2026-02-18 05:19 | 40.78666 | 28.44006 | 19905 ft | 360 kts | 215° |
| 2026-02-18 05:19 | 40.76582 | 28.42119 | 20473 ft | 365 kts | 215° |
| 2026-02-18 05:20 | 40.74477 | 28.40211 | 21044 ft | 370 kts | 215° |
| 2026-02-18 05:20 | 40.72377 | 28.38310 | 21689 ft | 372 kts | 215° |
| 2026-02-18 05:20 | 40.70226 | 28.36365 | 22313 ft | 376 kts | 215° |
| 2026-02-18 05:20 | 40.68064 | 28.34414 | 22926 ft | 379 kts | 214° |
| 2026-02-18 05:21 | 40.65874 | 28.32439 | 23358 ft | 384 kts | 214° |
| 2026-02-18 05:21 | 40.63648 | 28.30435 | 23731 ft | 390 kts | 214° |
| 2026-02-18 05:21 | 40.61400 | 28.28411 | 24236 ft | 392 kts | 214° |
| 2026-02-18 05:21 | 40.59140 | 28.26378 | 24721 ft | 394 kts | 214° |
| 2026-02-18 05:22 | 40.56863 | 28.24329 | 25143 ft | 399 kts | 214° |
| 2026-02-18 05:22 | 40.54562 | 28.22257 | 25559 ft | 403 kts | 214° |
| 2026-02-18 05:22 | 40.52238 | 28.20170 | 25977 ft | 406 kts | 214° |
| 2026-02-18 05:23 | 40.47557 | 28.15972 | 26505 ft | 403 kts | 214° |
| 2026-02-18 05:23 | 40.45272 | 28.13926 | 26525 ft | 395 kts | 214° |
| 2026-02-18 05:23 | 40.43008 | 28.11902 | 26519 ft | 393 kts | 215° |
| 2026-02-18 05:23 | 40.40781 | 28.09911 | 26527 ft | 392 kts | 215° |
| 2026-02-18 05:24 | 40.38530 | 28.07901 | 26530 ft | 391 kts | 215° |
| 2026-02-18 05:24 | 40.36276 | 28.05888 | 26533 ft | 392 kts | 215° |
| 2026-02-18 05:24 | 40.34018 | 28.03869 | 26529 ft | 394 kts | 215° |
| 2026-02-18 05:24 | 40.31752 | 28.01847 | 26532 ft | 393 kts | 215° |
| 2026-02-18 05:25 | 40.29491 | 27.99832 | 26535 ft | 392 kts | 215° |
| 2026-02-18 05:25 | 40.27238 | 27.97827 | 26529 ft | 392 kts | 216° |
| 2026-02-18 05:25 | 40.24981 | 27.95819 | 26525 ft | 392 kts | 215° |
| 2026-02-18 05:25 | 40.22720 | 27.93815 | 26523 ft | 393 kts | 215° |
| 2026-02-18 05:26 | 40.20458 | 27.91814 | 26523 ft | 393 kts | 216° |
| 2026-02-18 05:26 | 40.18266 | 27.89775 | 26306 ft | 393 kts | 224° |
| 2026-02-18 05:26 | 40.16761 | 27.86617 | 24330 ft | 420 kts | 245° |
| 2026-02-18 05:27 | 40.12983 | 27.81410 | 24374 ft | 393 kts | 205° |
| 2026-02-18 05:27 | 40.10420 | 27.80145 | 24737 ft | 394 kts | 201° |
| 2026-02-18 05:27 | 40.07841 | 27.78910 | 25114 ft | 395 kts | 201° |
| 2026-02-18 05:27 | 40.05289 | 27.77690 | 25489 ft | 397 kts | 201° |
| 2026-02-18 05:28 | 40.02766 | 27.76249 | 25879 ft | 394 kts | 210° |
| 2026-02-18 05:28 | 40.00408 | 27.74436 | 26273 ft | 393 kts | 214° |
| 2026-02-18 05:28 | 39.98132 | 27.72456 | 26514 ft | 393 kts | 216° |
| 2026-02-18 05:28 | 39.95904 | 27.70396 | 26559 ft | 393 kts | 217° |
| 2026-02-18 05:29 | 39.93679 | 27.68307 | 26560 ft | 393 kts | 217° |
| 2026-02-18 05:29 | 39.91454 | 27.66249 | 26560 ft | 392 kts | 217° |
| 2026-02-18 05:29 | 39.89219 | 27.64227 | 26557 ft | 390 kts | 216° |
| 2026-02-18 05:29 | 39.86975 | 27.62235 | 26558 ft | 391 kts | 215° |
| 2026-02-18 05:30 | 39.84718 | 27.60257 | 26562 ft | 392 kts | 215° |
| 2026-02-18 05:30 | 39.82455 | 27.58285 | 26564 ft | 391 kts | 215° |
| 2026-02-18 05:30 | 39.80189 | 27.56317 | 26558 ft | 390 kts | 215° |
| 2026-02-18 05:31 | 39.75678 | 27.52392 | 26556 ft | 391 kts | 215° |
| 2026-02-18 05:31 | 39.73415 | 27.50425 | 26556 ft | 392 kts | 214° |
| 2026-02-18 05:31 | 39.71000 | 27.48778 | 26559 ft | 394 kts | 204° |
| 2026-02-18 05:31 | 39.68380 | 27.47711 | 26559 ft | 396 kts | 193° |
| 2026-02-18 05:32 | 39.65650 | 27.47161 | 26565 ft | 398 kts | 190° |
| 2026-02-18 05:32 | 39.62908 | 27.46659 | 26554 ft | 398 kts | 190° |
| 2026-02-18 05:32 | 39.60161 | 27.46149 | 26535 ft | 399 kts | 190° |
| 2026-02-18 05:32 | 39.57412 | 27.45634 | 26541 ft | 399 kts | 191° |
| 2026-02-18 05:33 | 39.54662 | 27.45115 | 26537 ft | 399 kts | 191° |
| 2026-02-18 05:33 | 39.51949 | 27.44601 | 26539 ft | 400 kts | 191° |
| 2026-02-18 05:33 | 39.49197 | 27.44081 | 26543 ft | 400 kts | 190° |
| 2026-02-18 05:33 | 39.46442 | 27.43564 | 26542 ft | 400 kts | 191° |
| 2026-02-18 05:34 | 39.43686 | 27.43048 | 26543 ft | 400 kts | 191° |
| 2026-02-18 05:34 | 39.40928 | 27.42530 | 26545 ft | 401 kts | 191° |
| 2026-02-18 05:34 | 39.38169 | 27.42006 | 26538 ft | 400 kts | 192° |
| 2026-02-18 05:35 | 39.32812 | 27.40140 | 26545 ft | 398 kts | 198° |
| 2026-02-18 05:35 | 39.30148 | 27.39141 | 26540 ft | 399 kts | 198° |
| 2026-02-18 05:35 | 39.27484 | 27.38141 | 26542 ft | 402 kts | 198° |
| 2026-02-18 05:35 | 39.24756 | 27.37119 | 26540 ft | 413 kts | 198° |
| 2026-02-18 05:36 | 39.21991 | 27.36087 | 26540 ft | 415 kts | 198° |
| 2026-02-18 05:36 | 39.19222 | 27.35053 | 26376 ft | 413 kts | 198° |
| 2026-02-18 05:36 | 39.16475 | 27.34030 | 25793 ft | 409 kts | 198° |
| 2026-02-18 05:36 | 39.13756 | 27.33020 | 25244 ft | 405 kts | 198° |
| 2026-02-18 05:37 | 39.11062 | 27.32017 | 24707 ft | 400 kts | 198° |
| 2026-02-18 05:37 | 39.08400 | 27.31024 | 24194 ft | 396 kts | 198° |
| 2026-02-18 05:37 | 39.05760 | 27.30040 | 23684 ft | 392 kts | 198° |
| 2026-02-18 05:37 | 39.03160 | 27.29073 | 23244 ft | 387 kts | 198° |
| 2026-02-18 05:38 | 39.00581 | 27.28116 | 22739 ft | 383 kts | 198° |
| 2026-02-18 05:38 | 38.98034 | 27.27171 | 22184 ft | 380 kts | 198° |
| 2026-02-18 05:38 | 38.95503 | 27.26230 | 21659 ft | 377 kts | 198° |
| 2026-02-18 05:39 | 38.90495 | 27.24377 | 20671 ft | 371 kts | 199° |
| 2026-02-18 05:39 | 38.88003 | 27.23539 | 20152 ft | 370 kts | 193° |
| 2026-02-18 05:39 | 38.85434 | 27.23271 | 19624 ft | 371 kts | 182° |
| 2026-02-18 05:39 | 38.82892 | 27.23307 | 19121 ft | 369 kts | 182° |
| 2026-02-18 05:40 | 38.80295 | 27.23336 | 18598 ft | 367 kts | 182° |
| 2026-02-18 05:40 | 38.77777 | 27.23359 | 18092 ft | 365 kts | 182° |
| 2026-02-18 05:40 | 38.75248 | 27.23379 | 17528 ft | 363 kts | 183° |
| 2026-02-18 05:40 | 38.72730 | 27.23400 | 16955 ft | 360 kts | 183° |
| 2026-02-18 05:41 | 38.70238 | 27.23423 | 16609 ft | 352 kts | 183° |
| 2026-02-18 05:41 | 38.67851 | 27.23323 | 16474 ft | 335 kts | 191° |
| 2026-02-18 05:41 | 38.65640 | 27.22686 | 16336 ft | 318 kts | 200° |
| 2026-02-18 05:41 | 38.63540 | 27.21935 | 16081 ft | 310 kts | 200° |
| 2026-02-18 05:42 | 38.61473 | 27.21201 | 15707 ft | 307 kts | 200° |
| 2026-02-18 05:42 | 38.59420 | 27.20469 | 15283 ft | 305 kts | 200° |
| 2026-02-18 05:42 | 38.57376 | 27.19743 | 14882 ft | 304 kts | 200° |
| 2026-02-18 05:43 | 38.53331 | 27.18313 | 14157 ft | 299 kts | 200° |
| 2026-02-18 05:43 | 38.51327 | 27.17603 | 13808 ft | 298 kts | 201° |
| 2026-02-18 05:43 | 38.49338 | 27.16899 | 13468 ft | 296 kts | 200° |
| 2026-02-18 05:43 | 38.47358 | 27.16202 | 13032 ft | 294 kts | 200° |
| 2026-02-18 05:44 | 38.45384 | 27.15506 | 12590 ft | 294 kts | 200° |
| 2026-02-18 05:44 | 38.43420 | 27.14814 | 12171 ft | 292 kts | 200° |
| 2026-02-18 05:44 | 38.42127 | 27.14358 | 11906 ft | 291 kts | 200° |
| 2026-02-18 05:44 | 38.40171 | 27.13664 | 11520 ft | 290 kts | 200° |
| 2026-02-18 05:45 | 38.38230 | 27.12978 | 11111 ft | 289 kts | 200° |
| 2026-02-18 05:45 | 38.35675 | 27.12080 | 10627 ft | 287 kts | 200° |
| 2026-02-18 05:45 | 38.33762 | 27.11407 | 10243 ft | 285 kts | 200° |
| 2026-02-18 05:45 | 38.31854 | 27.10735 | 9868 ft | 284 kts | 200° |
| 2026-02-18 05:46 | 38.30569 | 27.10282 | 9623 ft | 282 kts | 200° |
| 2026-02-18 05:46 | 38.28678 | 27.09617 | 9248 ft | 281 kts | 200° |
| 2026-02-18 05:46 | 38.26805 | 27.08958 | 8885 ft | 278 kts | 200° |
| 2026-02-18 05:47 | 38.23208 | 27.07704 | 8558 ft | 260 kts | 200° |
| 2026-02-18 05:47 | 38.21428 | 27.07380 | 8422 ft | 261 kts | 185° |
| 2026-02-18 05:47 | 38.19611 | 27.07713 | 8291 ft | 267 kts | 172° |
| 2026-02-18 05:47 | 38.17802 | 27.08266 | 8164 ft | 267 kts | 172° |
| 2026-02-18 05:48 | 38.15995 | 27.08815 | 7879 ft | 266 kts | 172° |
| 2026-02-18 05:48 | 38.14201 | 27.09359 | 7541 ft | 264 kts | 172° |
| 2026-02-18 05:48 | 38.12415 | 27.09896 | 7193 ft | 263 kts | 172° |
| 2026-02-18 05:48 | 38.10643 | 27.10493 | 6849 ft | 274 kts | 162° |
| 2026-02-18 05:49 | 38.08920 | 27.11692 | 6493 ft | 287 kts | 147° |
| 2026-02-18 05:49 | 38.07601 | 27.13604 | 6141 ft | 292 kts | 118° |
| 2026-02-18 05:49 | 38.07009 | 27.16060 | 5788 ft | 293 kts | 97° |
| 2026-02-18 05:49 | 38.07108 | 27.18604 | 5414 ft | 289 kts | 74° |
| 2026-02-18 05:50 | 38.07754 | 27.21007 | 5054 ft | 285 kts | 56° |
| 2026-02-18 05:50 | 38.09125 | 27.22721 | 4566 ft | 278 kts | 24° |
| 2026-02-18 05:50 | 38.10968 | 27.23198 | 3912 ft | 275 kts | 348° |
| 2026-02-18 05:51 | 38.14016 | 27.20738 | 3173 ft | 259 kts | 320° |
| 2026-02-18 05:51 | 38.15614 | 27.19753 | 2845 ft | 251 kts | 340° |
| 2026-02-18 05:51 | 38.17267 | 27.19255 | 2525 ft | 236 kts | 344° |
| 2026-02-18 05:51 | 38.18782 | 27.18836 | 2234 ft | 214 kts | 343° |
| 2026-02-18 05:52 | 38.20182 | 27.18423 | 1937 ft | 197 kts | 342° |
| 2026-02-18 05:52 | 38.21452 | 27.18043 | 1672 ft | 179 kts | 342° |
| 2026-02-18 05:52 | 38.22614 | 27.17694 | 1435 ft | 165 kts | 342° |
| 2026-02-18 05:52 | 38.23704 | 27.17365 | 1227 ft | 158 kts | 342° |
| 2026-02-18 05:53 | 38.24743 | 27.17053 | 1041 ft | 146 kts | 341° |
| 2026-02-18 05:53 | 38.25696 | 27.16761 | 899 ft | 139 kts | 343° |
| 2026-02-18 05:53 | 38.26635 | 27.16484 | 701 ft | 138 kts | 344° |
| 2026-02-18 05:53 | 38.27572 | 27.16206 | 524 ft | 138 kts | 343° |
| 2026-02-18 05:54 | 38.28478 | 27.15931 | 418 ft | 123 kts | 346° |
| 2026-02-18 05:54 | 38.29082 | 27.15745 | 412 ft | 49 kts | 346° |
| 2026-02-18 05:54 | 38.29292 | 27.15679 | 410 ft | 29 kts | 346° |
| 2026-02-18 05:55 | 38.29409 | 27.15520 | 420 ft | 12 kts | 257° |
| 2026-02-18 05:55 | 38.29389 | 27.15408 | 411 ft | 14 kts | 257° |
| 2026-02-18 05:55 | 38.29361 | 27.15259 | 409 ft | 21 kts | 256° |
| 2026-02-18 05:55 | 38.29307 | 27.15138 | 411 ft | 12 kts | 177° |
| 2026-02-18 05:56 | 38.29212 | 27.15170 | 411 ft | 16 kts | 165° |
| 2026-02-18 05:56 | 38.29123 | 27.15190 | 411 ft | 9 kts | 194° |
| 2026-02-18 05:56 | 38.29103 | 27.15125 | 409 ft | 9 kts | 258° |
| 2026-02-18 05:56 | 38.29101 | 27.15111 | 409 ft | 0 kts | 257° |